createdAt,value
2018-09-15T00:00:21.737Z,1009.4
2018-09-15T00:01:23.831Z,1009.4
2018-09-15T00:02:25.944Z,1009.4
2018-09-15T00:03:28.429Z,1009.4
2018-09-15T00:04:30.519Z,1009.4
2018-09-15T00:05:32.606Z,1009.3
2018-09-15T00:06:34.717Z,1009.3
2018-09-15T00:07:37.196Z,1009.3
2018-09-15T00:08:39.295Z,1009.3
2018-09-15T00:09:41.406Z,1009.3
2018-09-15T00:10:43.481Z,1009.3
2018-09-15T00:11:45.592Z,1009.3
2018-09-15T00:12:47.693Z,1009.3
2018-09-15T00:13:49.796Z,1009.3
2018-09-15T00:14:51.889Z,1009.3
2018-09-15T00:15:54.285Z,1009.3
2018-09-15T00:16:56.387Z,1009.3
2018-09-15T00:17:59.065Z,1009.3
2018-09-15T00:19:01.174Z,1009.3
2018-09-15T00:20:03.547Z,1009.2
2018-09-15T00:21:05.643Z,1009.3
2018-09-15T00:22:07.751Z,1009.3
2018-09-15T00:23:09.929Z,1009.2
2018-09-15T00:24:11.942Z,1009.3
2018-09-15T00:25:14.431Z,1009.2
2018-09-15T00:26:16.516Z,1009.3
2018-09-15T00:27:18.616Z,1009.3
2018-09-15T00:28:20.727Z,1009.3
2018-09-15T00:29:22.825Z,1009.2
2018-09-15T00:30:24.916Z,1009.3
2018-09-15T00:31:27.035Z,1009.2
2018-09-15T00:32:29.118Z,1009.3
2018-09-15T00:33:31.206Z,1009.3
2018-09-15T00:34:33.298Z,1009.3
2018-09-15T00:35:35.406Z,1009.3
2018-09-15T00:36:37.796Z,1009.3
2018-09-15T00:37:39.894Z,1009.3
2018-09-15T00:38:41.979Z,1009.3
2018-09-15T00:39:44.088Z,1009.3
2018-09-15T00:40:46.172Z,1009.2
2018-09-15T00:41:48.375Z,1009.2
2018-09-15T00:42:50.392Z,1009.3
2018-09-15T00:43:52.476Z,1009.3
2018-09-15T00:44:54.970Z,1009.3
2018-09-15T00:45:57.075Z,1009.3
2018-09-15T00:46:59.169Z,1009.3
2018-09-15T00:48:01.255Z,1009.3
2018-09-15T00:49:03.360Z,1009.3
2018-09-15T00:50:05.449Z,1009.2
2018-09-15T00:51:07.548Z,1009.3
2018-09-15T00:52:09.968Z,1009.3
2018-09-15T00:53:12.054Z,1009.3
2018-09-15T00:54:14.156Z,1009.3
2018-09-15T00:55:16.266Z,1009.3
2018-09-15T00:56:18.648Z,1009.3
2018-09-15T00:57:20.736Z,1009.3
2018-09-15T00:58:23.230Z,1009.3
2018-09-15T00:59:25.613Z,1009.3
2018-09-15T01:00:27.713Z,1009.3
2018-09-15T01:01:30.210Z,1009.4
2018-09-15T01:02:32.312Z,1009.4
2018-09-15T01:03:34.686Z,1009.4
2018-09-15T01:04:36.791Z,1009.4
2018-09-15T01:05:38.884Z,1009.5
2018-09-15T01:06:40.975Z,1009.5
2018-09-15T01:07:43.082Z,1009.5
2018-09-15T01:08:45.171Z,1009.5
2018-09-15T01:09:47.276Z,1009.5
2018-09-15T01:10:49.377Z,1009.5
2018-09-15T01:11:51.774Z,1009.5
2018-09-15T01:12:54.151Z,1009.5
2018-09-15T01:13:56.256Z,1009.5
2018-09-15T01:14:58.647Z,1009.5
2018-09-15T01:16:00.756Z,1009.5
2018-09-15T01:17:03.134Z,1009.5
2018-09-15T01:18:05.253Z,1009.5
2018-09-15T01:19:07.343Z,1009.5
2018-09-15T01:20:09.539Z,1009.5
2018-09-15T01:21:12.488Z,1009.5
2018-09-15T01:22:14.592Z,1009.5
2018-09-15T01:23:16.683Z,1009.5
2018-09-15T01:24:18.773Z,1009.5
2018-09-15T01:25:20.884Z,1009.5
2018-09-15T01:26:22.971Z,1009.5
2018-09-15T01:27:25.374Z,1009.5
2018-09-15T01:28:27.479Z,1009.5
2018-09-15T01:29:29.574Z,1009.5
2018-09-15T01:30:32.251Z,1009.4
2018-09-15T01:31:34.357Z,1009.5
2018-09-15T01:32:36.442Z,1009.4
2018-09-15T01:33:38.539Z,1009.4
2018-09-15T01:34:40.643Z,1009.4
2018-09-15T01:35:42.742Z,1009.4
2018-09-15T01:36:44.832Z,1009.4
2018-09-15T01:37:46.940Z,1009.4
2018-09-15T01:38:49.036Z,1009.5
2018-09-15T01:39:51.125Z,1009.4
2018-09-15T01:40:53.522Z,1009.4
2018-09-15T01:41:55.999Z,1009.4
2018-09-15T01:42:58.101Z,1009.5
2018-09-15T01:44:00.196Z,1009.5
2018-09-15T01:45:02.307Z,1009.4
2018-09-15T01:46:05.073Z,1009.4
2018-09-15T01:47:07.179Z,1009.5
2018-09-15T01:48:09.562Z,1009.5
2018-09-15T01:49:11.656Z,1009.4
2018-09-15T01:50:14.161Z,1009.4
2018-09-15T01:51:16.246Z,1009.5
2018-09-15T01:52:18.632Z,1009.5
2018-09-15T01:53:21.115Z,1009.5
2018-09-15T01:54:23.224Z,1009.5
2018-09-15T01:55:25.317Z,1009.4
2018-09-15T01:56:27.416Z,1009.4
2018-09-15T01:57:29.572Z,1009.5
2018-09-15T01:58:32.063Z,1009.4
2018-09-15T01:59:34.170Z,1009.4
2018-09-15T02:00:36.265Z,1009.4
2018-09-15T02:01:38.742Z,1009.4
2018-09-15T02:02:40.840Z,1009.4
2018-09-15T02:03:42.940Z,1009.4
2018-09-15T02:04:45.035Z,1009.5
2018-09-15T02:05:47.144Z,1009.4
2018-09-15T02:06:49.236Z,1009.4
2018-09-15T02:07:51.321Z,1009.4
2018-09-15T02:08:53.708Z,1009.4
2018-09-15T02:09:55.810Z,1009.4
2018-09-15T02:10:57.899Z,1009.4
2018-09-15T02:12:00.002Z,1009.3
2018-09-15T02:13:02.098Z,1009.3
2018-09-15T02:14:04.189Z,1009.3
2018-09-15T02:15:06.293Z,1009.3
2018-09-15T02:16:08.387Z,1009.3
2018-09-15T02:17:10.480Z,1009.3
2018-09-15T02:18:12.568Z,1009.3
2018-09-15T02:19:14.671Z,1009.3
2018-09-15T02:20:16.756Z,1009.3
2018-09-15T02:21:19.177Z,1009.3
2018-09-15T02:22:21.240Z,1009.3
2018-09-15T02:23:23.322Z,1009.3
2018-09-15T02:24:25.466Z,1009.3
2018-09-15T02:25:27.809Z,1009.3
2018-09-15T02:26:29.909Z,1009.3
2018-09-15T02:27:32.281Z,1009.4
2018-09-15T02:28:34.770Z,1009.3
2018-09-15T02:29:36.872Z,1009.3
2018-09-15T02:30:39.549Z,1009.4
2018-09-15T02:31:41.976Z,1009.4
2018-09-15T02:32:44.388Z,1009.4
2018-09-15T02:33:46.476Z,1009.4
2018-09-15T02:34:48.948Z,1009.4
2018-09-15T02:35:51.435Z,1009.4
2018-09-15T02:36:53.926Z,1009.5
2018-09-15T02:37:56.018Z,1009.5
2018-09-15T02:38:58.131Z,1009.5
2018-09-15T02:40:00.228Z,1009.5
2018-09-15T02:41:03.002Z,1009.5
2018-09-15T02:42:05.099Z,1009.4
2018-09-15T02:43:07.214Z,1009.4
2018-09-15T02:44:09.300Z,1009.5
2018-09-15T02:45:11.399Z,1009.5
2018-09-15T02:46:13.819Z,1009.5
2018-09-15T02:47:15.913Z,1009.5
2018-09-15T02:48:18.028Z,1009.4
2018-09-15T02:49:20.116Z,1009.4
2018-09-15T02:50:22.218Z,1009.5
2018-09-15T02:51:24.307Z,1009.4
2018-09-15T02:52:26.411Z,1009.5
2018-09-15T02:53:28.502Z,1009.4
2018-09-15T02:54:30.987Z,1009.4
2018-09-15T02:55:33.418Z,1009.4
2018-09-15T02:56:35.504Z,1009.5
2018-09-15T02:57:37.609Z,1009.4
2018-09-15T02:58:39.704Z,1009.5
2018-09-15T02:59:41.812Z,1009.4
2018-09-15T03:00:43.896Z,1009.4
2018-09-15T03:01:46.309Z,1009.4
2018-09-15T03:02:48.402Z,1009.4
2018-09-15T03:03:50.496Z,1009.4
2018-09-15T03:04:53.293Z,1009.4
2018-09-15T03:05:55.394Z,1009.4
2018-09-15T03:06:57.489Z,1009.4
2018-09-15T03:07:59.964Z,1009.4
2018-09-15T03:09:02.064Z,1009.4
2018-09-15T03:10:04.160Z,1009.4
2018-09-15T03:11:06.241Z,1009.4
2018-09-15T03:12:08.344Z,1009.4
2018-09-15T03:13:10.448Z,1009.5
2018-09-15T03:14:12.827Z,1009.5
2018-09-15T03:15:15.219Z,1009.5
2018-09-15T03:16:17.323Z,1009.5
2018-09-15T03:17:19.410Z,1009.5
2018-09-15T03:18:21.805Z,1009.5
2018-09-15T03:19:23.903Z,1009.5
2018-09-15T03:20:26.390Z,1009.6
2018-09-15T03:21:28.892Z,1009.6
2018-09-15T03:22:30.979Z,1009.6
2018-09-15T03:23:33.674Z,1009.6
2018-09-15T03:24:35.763Z,1009.6
2018-09-15T03:25:37.862Z,1009.6
2018-09-15T03:26:39.962Z,1009.6
2018-09-15T03:27:42.057Z,1009.6
2018-09-15T03:28:44.453Z,1009.6
2018-09-15T03:29:46.821Z,1009.7
2018-09-15T03:30:48.928Z,1009.6
2018-09-15T03:31:51.709Z,1009.6
2018-09-15T03:32:53.820Z,1009.6
2018-09-15T03:33:56.293Z,1009.6
2018-09-15T03:34:58.786Z,1009.6
2018-09-15T03:36:01.451Z,1009.6
2018-09-15T03:37:03.543Z,1009.6
2018-09-15T03:38:05.645Z,1009.6
2018-09-15T03:39:07.734Z,1009.6
2018-09-15T03:40:10.122Z,1009.6
2018-09-15T03:41:12.238Z,1009.5
2018-09-15T03:42:14.332Z,1009.5
2018-09-15T03:43:16.701Z,1009.6
2018-09-15T03:44:19.107Z,1009.6
2018-09-15T03:45:21.210Z,1009.6
2018-09-15T03:46:23.316Z,1009.6
2018-09-15T03:47:25.694Z,1009.6
2018-09-15T03:48:28.078Z,1009.7
2018-09-15T03:49:30.186Z,1009.6
2018-09-15T03:50:32.972Z,1009.6
2018-09-15T03:51:35.071Z,1009.6
2018-09-15T03:52:37.753Z,1009.6
2018-09-15T03:53:39.850Z,1009.6
2018-09-15T03:54:41.956Z,1009.6
2018-09-15T03:55:44.048Z,1009.5
2018-09-15T03:56:46.152Z,1009.5
2018-09-15T03:57:48.944Z,1009.5
2018-09-15T03:58:51.352Z,1009.5
2018-09-15T03:59:53.445Z,1009.6
2018-09-15T04:00:55.946Z,1009.6
2018-09-15T04:01:58.338Z,1009.6
2018-09-15T04:03:01.067Z,1009.6
2018-09-15T04:04:03.459Z,1009.7
2018-09-15T04:05:05.851Z,1009.7
2018-09-15T04:06:08.238Z,1009.7
2018-09-15T04:07:10.322Z,1009.6
2018-09-15T04:08:12.428Z,1009.7
2018-09-15T04:09:15.097Z,1009.7
2018-09-15T04:10:18.170Z,1009.7
2018-09-15T04:11:20.668Z,1009.7
2018-09-15T04:12:22.756Z,1009.6
2018-09-15T04:13:24.859Z,1009.7
2018-09-15T04:14:27.282Z,1009.7
2018-09-15T04:15:29.387Z,1009.7
2018-09-15T04:16:31.470Z,1009.6
2018-09-15T04:17:33.878Z,1009.7
2018-09-15T04:18:35.964Z,1009.6
2018-09-15T04:19:38.057Z,1009.6
2018-09-15T04:20:41.069Z,1009.6
2018-09-15T04:21:43.166Z,1009.6
2018-09-15T04:22:45.251Z,1009.6
2018-09-15T04:23:47.356Z,1009.6
2018-09-15T04:24:49.753Z,1009.6
2018-09-15T04:25:51.898Z,1009.6
2018-09-15T04:26:54.007Z,1009.6
2018-09-15T04:27:56.087Z,1009.5
2018-09-15T04:28:58.183Z,1009.6
2018-09-15T04:30:00.278Z,1009.5
2018-09-15T04:31:02.384Z,1009.6
2018-09-15T04:32:04.473Z,1009.6
2018-09-15T04:33:06.884Z,1009.6
2018-09-15T04:34:09.560Z,1009.6
2018-09-15T04:35:11.650Z,1009.6
2018-09-15T04:36:14.148Z,1009.6
2018-09-15T04:37:16.255Z,1009.6
2018-09-15T04:38:18.350Z,1009.6
2018-09-15T04:39:20.733Z,1009.6
2018-09-15T04:40:22.841Z,1009.7
2018-09-15T04:41:24.928Z,1009.7
2018-09-15T04:42:27.321Z,1009.7
2018-09-15T04:43:29.429Z,1009.7
2018-09-15T04:44:31.514Z,1009.7
2018-09-15T04:45:33.614Z,1009.7
2018-09-15T04:46:36.000Z,1009.7
2018-09-15T04:47:38.380Z,1009.8
2018-09-15T04:48:40.475Z,1009.8
2018-09-15T04:49:42.885Z,1009.8
2018-09-15T04:50:45.266Z,1009.8
2018-09-15T04:51:47.371Z,1009.8
2018-09-15T04:52:49.959Z,1009.8
2018-09-15T04:53:51.960Z,1009.8
2018-09-15T04:54:54.735Z,1009.8
2018-09-15T04:55:57.148Z,1009.8
2018-09-15T04:56:59.250Z,1009.8
2018-09-15T04:58:01.346Z,1009.8
2018-09-15T04:59:03.735Z,1009.8
2018-09-15T05:00:05.835Z,1009.8
2018-09-15T05:01:07.918Z,1009.8
2018-09-15T05:02:10.015Z,1009.8
2018-09-15T05:03:12.127Z,1009.8
2018-09-15T05:04:14.619Z,1009.8
2018-09-15T05:05:16.990Z,1009.8
2018-09-15T05:06:19.384Z,1009.8
2018-09-15T05:07:21.480Z,1009.8
2018-09-15T05:08:24.273Z,1009.9
2018-09-15T05:09:26.381Z,1009.9
2018-09-15T05:10:28.466Z,1009.9
2018-09-15T05:11:30.567Z,1009.9
2018-09-15T05:12:33.087Z,1009.9
2018-09-15T05:13:35.171Z,1009.9
2018-09-15T05:14:37.257Z,1009.9
2018-09-15T05:15:39.355Z,1009.9
2018-09-15T05:16:41.462Z,1009.9
2018-09-15T05:17:43.540Z,1009.9
2018-09-15T05:18:45.684Z,1009.9
2018-09-15T05:19:47.748Z,1010
2018-09-15T05:20:50.121Z,1009.9
2018-09-15T05:21:52.217Z,1010
2018-09-15T05:22:54.317Z,1010
2018-09-15T05:23:56.409Z,1010
2018-09-15T05:24:58.513Z,1010
2018-09-15T05:26:00.612Z,1010
2018-09-15T05:27:02.701Z,1010
2018-09-15T05:28:04.807Z,1010
2018-09-15T05:29:07.211Z,1010
2018-09-15T05:30:09.291Z,1010
2018-09-15T05:31:11.401Z,1010
2018-09-15T05:32:13.892Z,1010.1
2018-09-15T05:33:15.984Z,1010.1
2018-09-15T05:34:18.384Z,1010.1
2018-09-15T05:35:20.469Z,1010.1
2018-09-15T05:36:22.566Z,1010.1
2018-09-15T05:37:24.652Z,1010.1
2018-09-15T05:38:27.034Z,1010.1
2018-09-15T05:39:29.531Z,1010
2018-09-15T05:40:32.021Z,1010.1
2018-09-15T05:41:34.105Z,1010.1
2018-09-15T05:42:36.220Z,1010.1
2018-09-15T05:43:38.303Z,1010.1
2018-09-15T05:44:40.400Z,1010.1
2018-09-15T05:45:42.496Z,1010.1
2018-09-15T05:46:44.996Z,1010.1
2018-09-15T05:47:47.466Z,1010.1
2018-09-15T05:48:49.575Z,1010
2018-09-15T05:49:51.680Z,1010.1
2018-09-15T05:50:53.763Z,1010.1
2018-09-15T05:51:56.258Z,1010.1
2018-09-15T05:52:58.741Z,1010.1
2018-09-15T05:54:00.825Z,1010.1
2018-09-15T05:55:02.921Z,1010.2
2018-09-15T05:56:05.121Z,1010.2
2018-09-15T05:57:07.112Z,1010.1
2018-09-15T05:58:09.215Z,1010.2
2018-09-15T05:59:11.989Z,1010.2
2018-09-15T06:00:14.076Z,1010.3
2018-09-15T06:01:16.181Z,1010.3
2018-09-15T06:02:18.283Z,1010.3
2018-09-15T06:03:20.369Z,1010.3
2018-09-15T06:04:22.467Z,1010.3
2018-09-15T06:05:24.568Z,1010.3
2018-09-15T06:06:26.654Z,1010.3
2018-09-15T06:07:28.768Z,1010.3
2018-09-15T06:08:31.252Z,1010.3
2018-09-15T06:09:33.351Z,1010.4
2018-09-15T06:10:35.741Z,1010.4
2018-09-15T06:11:37.849Z,1010.4
2018-09-15T06:12:39.944Z,1010.4
2018-09-15T06:13:42.108Z,1010.4
2018-09-15T06:14:44.566Z,1010.4
2018-09-15T06:15:46.666Z,1010.4
2018-09-15T06:16:49.330Z,1010.5
2018-09-15T06:17:51.425Z,1010.5
2018-09-15T06:18:53.516Z,1010.5
2018-09-15T06:19:55.627Z,1010.5
2018-09-15T06:20:57.717Z,1010.5
2018-09-15T06:21:59.817Z,1010.5
2018-09-15T06:23:01.921Z,1010.5
2018-09-15T06:24:03.997Z,1010.5
2018-09-15T06:25:06.410Z,1010.5
2018-09-15T06:26:08.507Z,1010.5
2018-09-15T06:27:10.985Z,1010.5
2018-09-15T06:28:13.083Z,1010.5
2018-09-15T06:29:15.473Z,1010.5
2018-09-15T06:30:17.564Z,1010.6
2018-09-15T06:31:19.670Z,1010.6
2018-09-15T06:32:22.053Z,1010.6
2018-09-15T06:33:24.141Z,1010.6
2018-09-15T06:34:26.632Z,1010.6
2018-09-15T06:35:28.736Z,1010.6
2018-09-15T06:36:30.823Z,1010.6
2018-09-15T06:37:32.923Z,1010.6
2018-09-15T06:38:35.027Z,1010.6
2018-09-15T06:39:37.114Z,1010.6
2018-09-15T06:40:39.225Z,1010.7
2018-09-15T06:41:41.321Z,1010.7
2018-09-15T06:42:43.418Z,1010.7
2018-09-15T06:43:45.512Z,1010.7
2018-09-15T06:44:47.622Z,1010.6
2018-09-15T06:45:49.796Z,1010.7
2018-09-15T06:46:52.264Z,1010.7
2018-09-15T06:47:54.379Z,1010.7
2018-09-15T06:48:56.459Z,1010.7
2018-09-15T06:49:58.962Z,1010.7
2018-09-15T06:51:01.056Z,1010.7
2018-09-15T06:52:03.158Z,1010.7
2018-09-15T06:53:05.250Z,1010.7
2018-09-15T06:54:07.639Z,1010.7
2018-09-15T06:55:10.030Z,1010.7
2018-09-15T06:56:12.562Z,1010.7
2018-09-15T06:57:15.410Z,1010.7
2018-09-15T06:58:17.923Z,1010.7
2018-09-15T06:59:20.027Z,1010.8
2018-09-15T07:00:22.427Z,1010.7
2018-09-15T07:01:24.530Z,1010.7
2018-09-15T07:02:26.620Z,1010.7
2018-09-15T07:03:28.721Z,1010.8
2018-09-15T07:04:31.211Z,1010.8
2018-09-15T07:05:33.598Z,1010.8
2018-09-15T07:06:35.717Z,1010.8
2018-09-15T07:07:37.821Z,1010.9
2018-09-15T07:08:39.916Z,1010.9
2018-09-15T07:09:42.027Z,1010.9
2018-09-15T07:10:44.408Z,1010.9
2018-09-15T07:11:46.502Z,1010.9
2018-09-15T07:12:48.649Z,1010.9
2018-09-15T07:13:50.981Z,1010.9
2018-09-15T07:14:53.084Z,1010.9
2018-09-15T07:15:55.189Z,1011
2018-09-15T07:16:57.293Z,1011
2018-09-15T07:17:59.380Z,1011
2018-09-15T07:19:01.485Z,1011
2018-09-15T07:20:03.935Z,1011
2018-09-15T07:21:05.956Z,1011.1
2018-09-15T07:22:08.459Z,1011.1
2018-09-15T07:23:10.541Z,1011.2
2018-09-15T07:24:12.647Z,1011.2
2018-09-15T07:25:15.411Z,1011.2
2018-09-15T07:26:17.523Z,1011.2
2018-09-15T07:27:19.611Z,1011.2
2018-09-15T07:28:21.714Z,1011.2
2018-09-15T07:29:23.821Z,1011.1
2018-09-15T07:30:26.303Z,1011.2
2018-09-15T07:31:28.756Z,1011.2
2018-09-15T07:32:31.163Z,1011.1
2018-09-15T07:33:33.660Z,1011.2
2018-09-15T07:34:35.760Z,1011.2
2018-09-15T07:35:37.850Z,1011.2
2018-09-15T07:36:39.992Z,1011.3
2018-09-15T07:37:42.148Z,1011.3
2018-09-15T07:38:44.973Z,1011.3
2018-09-15T07:39:47.082Z,1011.3
2018-09-15T07:40:49.473Z,1011.3
2018-09-15T07:41:51.956Z,1011.3
2018-09-15T07:42:54.076Z,1011.3
2018-09-15T07:43:56.482Z,1011.3
2018-09-15T07:44:58.579Z,1011.3
2018-09-15T07:46:00.981Z,1011.3
2018-09-15T07:47:03.351Z,1011.4
2018-09-15T07:48:05.513Z,1011.4
2018-09-15T07:49:08.199Z,1011.4
2018-09-15T07:50:10.699Z,1011.4
2018-09-15T07:51:12.837Z,1011.4
2018-09-15T07:52:14.896Z,1011.4
2018-09-15T07:53:17.294Z,1011.4
2018-09-15T07:54:19.381Z,1011.4
2018-09-15T07:55:21.495Z,1011.4
2018-09-15T07:56:23.581Z,1011.4
2018-09-15T07:57:25.771Z,1011.4
2018-09-15T07:58:27.783Z,1011.4
2018-09-15T07:59:29.903Z,1011.3
2018-09-15T08:00:31.994Z,1011.4
2018-09-15T08:01:34.109Z,1011.4
2018-09-15T08:02:36.213Z,1011.3
2018-09-15T08:03:38.300Z,1011.4
2018-09-15T08:04:40.410Z,1011.4
2018-09-15T08:05:42.511Z,1011.4
2018-09-15T08:06:44.603Z,1011.4
2018-09-15T08:07:46.709Z,1011.4
2018-09-15T08:08:48.813Z,1011.5
2018-09-15T08:09:51.294Z,1011.5
2018-09-15T08:10:53.449Z,1011.4
2018-09-15T08:11:55.512Z,1011.4
2018-09-15T08:12:57.602Z,1011.5
2018-09-15T08:13:59.703Z,1011.4
2018-09-15T08:15:01.814Z,1011.4
2018-09-15T08:16:03.921Z,1011.4
2018-09-15T08:17:06.031Z,1011.5
2018-09-15T08:18:08.136Z,1011.4
2018-09-15T08:19:10.229Z,1011.5
2018-09-15T08:20:12.342Z,1011.5
2018-09-15T08:21:15.116Z,1011.5
2018-09-15T08:22:17.222Z,1011.5
2018-09-15T08:23:19.319Z,1011.5
2018-09-15T08:24:21.433Z,1011.5
2018-09-15T08:25:23.529Z,1011.5
2018-09-15T08:26:25.713Z,1011.5
2018-09-15T08:27:28.152Z,1011.5
2018-09-15T08:28:30.563Z,1011.5
2018-09-15T08:29:32.677Z,1011.6
2018-09-15T08:30:35.074Z,1011.5
2018-09-15T08:31:37.183Z,1011.5
2018-09-15T08:32:39.285Z,1011.5
2018-09-15T08:33:41.391Z,1011.5
2018-09-15T08:34:43.488Z,1011.6
2018-09-15T08:35:45.585Z,1011.5
2018-09-15T08:36:47.714Z,1011.5
2018-09-15T08:37:49.801Z,1011.6
2018-09-15T08:38:51.909Z,1011.6
2018-09-15T08:39:54.024Z,1011.6
2018-09-15T08:40:56.132Z,1011.5
2018-09-15T08:41:58.226Z,1011.6
2018-09-15T08:43:00.344Z,1011.6
2018-09-15T08:44:02.433Z,1011.5
2018-09-15T08:45:04.931Z,1011.6
2018-09-15T08:46:07.047Z,1011.6
2018-09-15T08:47:09.150Z,1011.6
2018-09-15T08:48:11.315Z,1011.6
2018-09-15T08:49:13.353Z,1011.6
2018-09-15T08:50:15.463Z,1011.6
2018-09-15T08:51:17.889Z,1011.7
2018-09-15T08:52:19.988Z,1011.7
2018-09-15T08:53:22.105Z,1011.6
2018-09-15T08:54:24.208Z,1011.7
2018-09-15T08:55:26.360Z,1011.6
2018-09-15T08:56:28.462Z,1011.7
2018-09-15T08:57:30.579Z,1011.7
2018-09-15T08:58:32.675Z,1011.7
2018-09-15T08:59:34.779Z,1011.7
2018-09-15T09:00:36.947Z,1011.7
2018-09-15T09:01:39.034Z,1011.8
2018-09-15T09:02:41.152Z,1011.7
2018-09-15T09:03:43.296Z,1011.8
2018-09-15T09:04:45.827Z,1011.7
2018-09-15T09:05:47.919Z,1011.8
2018-09-15T09:06:50.614Z,1011.8
2018-09-15T09:07:53.012Z,1011.8
2018-09-15T09:08:55.112Z,1011.8
2018-09-15T09:09:57.227Z,1011.8
2018-09-15T09:10:59.323Z,1011.8
2018-09-15T09:12:01.426Z,1011.8
2018-09-15T09:13:03.543Z,1011.8
2018-09-15T09:14:05.654Z,1011.8
2018-09-15T09:15:08.139Z,1011.8
2018-09-15T09:16:10.251Z,1011.9
2018-09-15T09:17:12.551Z,1011.7
2018-09-15T09:18:14.658Z,1011.8
2018-09-15T09:19:16.778Z,1011.8
2018-09-15T09:20:18.880Z,1011.9
2018-09-15T09:21:20.983Z,1011.9
2018-09-15T09:22:23.389Z,1011.8
2018-09-15T09:23:25.490Z,1011.9
2018-09-15T09:24:27.900Z,1011.8
2018-09-15T09:25:30.020Z,1011.8
2018-09-15T09:26:32.190Z,1011.8
2018-09-15T09:27:34.216Z,1011.9
2018-09-15T09:28:36.321Z,1011.8
2018-09-15T09:29:38.439Z,1011.8
2018-09-15T09:30:40.920Z,1011.8
2018-09-15T09:31:43.427Z,1011.8
2018-09-15T09:32:45.824Z,1011.8
2018-09-15T09:33:47.923Z,1011.8
2018-09-15T09:34:50.044Z,1011.8
2018-09-15T09:35:52.524Z,1011.8
2018-09-15T09:36:54.629Z,1011.9
2018-09-15T09:37:56.740Z,1011.8
2018-09-15T09:38:59.147Z,1011.9
2018-09-15T09:40:01.539Z,1011.9
2018-09-15T09:41:03.645Z,1011.9
2018-09-15T09:42:05.759Z,1011.9
2018-09-15T09:43:08.151Z,1012
2018-09-15T09:44:10.553Z,1011.9
2018-09-15T09:45:12.663Z,1012.1
2018-09-15T09:46:14.761Z,1012.1
2018-09-15T09:47:16.864Z,1012
2018-09-15T09:48:19.078Z,1012
2018-09-15T09:49:21.082Z,1012
2018-09-15T09:50:23.199Z,1012.1
2018-09-15T09:51:25.311Z,1012
2018-09-15T09:52:27.413Z,1012
2018-09-15T09:53:29.520Z,1012.1
2018-09-15T09:54:31.643Z,1012
2018-09-15T09:55:34.022Z,1012
2018-09-15T09:56:36.455Z,1012
2018-09-15T09:57:38.565Z,1012
2018-09-15T09:58:40.672Z,1012
2018-09-15T09:59:43.086Z,1012.1
2018-09-15T10:00:45.186Z,1012
2018-09-15T10:01:47.290Z,1012
2018-09-15T10:02:49.395Z,1012.1
2018-09-15T10:03:51.504Z,1012.1
2018-09-15T10:04:53.915Z,1012.1
2018-09-15T10:05:56.317Z,1012.1
2018-09-15T10:06:58.722Z,1012.1
2018-09-15T10:08:00.833Z,1012.1
2018-09-15T10:09:02.939Z,1012.1
2018-09-15T10:10:05.057Z,1012.1
2018-09-15T10:11:07.448Z,1012.1
2018-09-15T10:12:10.250Z,1012.1
2018-09-15T10:13:12.349Z,1012.1
2018-09-15T10:14:14.464Z,1012
2018-09-15T10:15:16.579Z,1012.1
2018-09-15T10:16:19.163Z,1012
2018-09-15T10:17:21.722Z,1012
2018-09-15T10:18:23.824Z,1012.1
2018-09-15T10:19:25.928Z,1012.1
2018-09-15T10:20:28.327Z,1012.1
2018-09-15T10:21:30.513Z,1012
2018-09-15T10:22:32.921Z,1012
2018-09-15T10:23:35.034Z,1012.1
2018-09-15T10:24:37.148Z,1012
2018-09-15T10:25:40.218Z,1012
2018-09-15T10:26:42.627Z,1012.1
2018-09-15T10:27:44.743Z,1012
2018-09-15T10:28:46.843Z,1012.1
2018-09-15T10:29:48.957Z,1012.1
2018-09-15T10:30:51.360Z,1012.1
2018-09-15T10:31:53.512Z,1012.1
2018-09-15T10:32:55.933Z,1012.1
2018-09-15T10:33:58.046Z,1012.2
2018-09-15T10:35:00.154Z,1012.1
2018-09-15T10:36:02.544Z,1012.1
2018-09-15T10:37:04.669Z,1012.1
2018-09-15T10:38:06.764Z,1012.1
2018-09-15T10:39:08.875Z,1012
2018-09-15T10:40:11.056Z,1012
2018-09-15T10:41:13.492Z,1012
2018-09-15T10:42:15.585Z,1012
2018-09-15T10:43:18.085Z,1012
2018-09-15T10:44:20.478Z,1012
2018-09-15T10:45:22.887Z,1012
2018-09-15T10:46:25.272Z,1012
2018-09-15T10:47:27.390Z,1012
2018-09-15T10:48:29.510Z,1012
2018-09-15T10:49:31.606Z,1012
2018-09-15T10:50:33.724Z,1011.9
2018-09-15T10:51:35.831Z,1011.9
2018-09-15T10:52:38.232Z,1012
2018-09-15T10:53:40.345Z,1012
2018-09-15T10:54:42.467Z,1012
2018-09-15T10:55:44.571Z,1012
2018-09-15T10:56:46.995Z,1012
2018-09-15T10:57:49.101Z,1012
2018-09-15T10:58:51.520Z,1012
2018-09-15T10:59:53.618Z,1011.9
2018-09-15T11:00:56.041Z,1011.9
2018-09-15T11:01:58.139Z,1011.8
2018-09-15T11:03:00.653Z,1011.9
2018-09-15T11:04:03.154Z,1011.9
2018-09-15T11:05:05.254Z,1011.8
2018-09-15T11:06:07.380Z,1012
2018-09-15T11:07:09.490Z,1011.9
2018-09-15T11:08:11.596Z,1011.9
2018-09-15T11:09:13.696Z,1011.9
2018-09-15T11:10:15.823Z,1011.8
2018-09-15T11:11:17.922Z,1011.8
2018-09-15T11:12:20.036Z,1011.9
2018-09-15T11:13:22.335Z,1012
2018-09-15T11:14:24.254Z,1012
2018-09-15T11:15:26.373Z,1012.1
2018-09-15T11:16:28.480Z,1012
2018-09-15T11:17:30.877Z,1012.1
2018-09-15T11:18:32.973Z,1012.1
2018-09-15T11:19:35.090Z,1012
2018-09-15T11:20:37.206Z,1012
2018-09-15T11:21:39.630Z,1012
2018-09-15T11:22:42.321Z,1012
2018-09-15T11:23:45.029Z,1012
2018-09-15T11:24:47.527Z,1012
2018-09-15T11:25:49.627Z,1012
2018-09-15T11:26:52.026Z,1012
2018-09-15T11:27:54.146Z,1012
2018-09-15T11:28:56.289Z,1012
2018-09-15T11:29:58.717Z,1012
2018-09-15T11:31:01.121Z,1012
2018-09-15T11:32:03.214Z,1012.1
2018-09-15T11:33:05.324Z,1012
2018-09-15T11:34:07.463Z,1012.1
2018-09-15T11:35:09.922Z,1012.1
2018-09-15T11:36:12.038Z,1012.1
2018-09-15T11:37:14.158Z,1012.1
2018-09-15T11:38:16.263Z,1012.2
2018-09-15T11:39:18.390Z,1012.1
2018-09-15T11:40:20.780Z,1012.1
2018-09-15T11:41:23.185Z,1012.1
2018-09-15T11:42:25.606Z,1012.1
2018-09-15T11:43:28.123Z,1012
2018-09-15T11:44:30.218Z,1012.1
2018-09-15T11:45:32.711Z,1012.1
2018-09-15T11:46:34.825Z,1012.2
2018-09-15T11:47:36.915Z,1012.2
2018-09-15T11:48:39.034Z,1012.1
2018-09-15T11:49:41.536Z,1012.2
2018-09-15T11:50:43.650Z,1012.1
2018-09-15T11:51:45.744Z,1012.1
2018-09-15T11:52:47.858Z,1012.1
2018-09-15T11:53:50.050Z,1012.1
2018-09-15T11:54:52.057Z,1012.1
2018-09-15T11:55:54.177Z,1012.1
2018-09-15T11:56:56.272Z,1012.1
2018-09-15T11:57:58.380Z,1012.1
2018-09-15T11:59:00.486Z,1012.1
2018-09-15T12:00:02.675Z,1012.1
2018-09-15T12:01:04.691Z,1012.2
2018-09-15T12:02:06.851Z,1012.2
2018-09-15T12:03:08.906Z,1012.2
2018-09-15T12:04:11.011Z,1012.2
2018-09-15T12:05:13.133Z,1012.1
2018-09-15T12:06:15.240Z,1012.1
2018-09-15T12:07:17.642Z,1012.2
2018-09-15T12:08:19.760Z,1012.1
2018-09-15T12:09:21.852Z,1012.1
2018-09-15T12:10:23.948Z,1012.1
2018-09-15T12:11:26.062Z,1012
2018-09-15T12:12:28.147Z,1012
2018-09-15T12:13:30.255Z,1012
2018-09-15T12:14:32.359Z,1012.1
2018-09-15T12:15:35.048Z,1012.1
2018-09-15T12:16:37.141Z,1012.1
2018-09-15T12:17:39.544Z,1012.2
2018-09-15T12:18:42.038Z,1012.2
2018-09-15T12:19:44.135Z,1012.2
2018-09-15T12:20:46.254Z,1012.2
2018-09-15T12:21:48.428Z,1012.1
2018-09-15T12:22:50.455Z,1012.1
2018-09-15T12:23:52.844Z,1012.1
2018-09-15T12:24:54.957Z,1012.2
2018-09-15T12:25:57.444Z,1012.2
2018-09-15T12:26:59.557Z,1012.2
2018-09-15T12:28:01.778Z,1012.3
2018-09-15T12:29:03.756Z,1012.3
2018-09-15T12:30:05.867Z,1012.3
2018-09-15T12:31:08.267Z,1012.4
2018-09-15T12:32:10.360Z,1012.4
2018-09-15T12:33:12.751Z,1012.5
2018-09-15T12:34:14.863Z,1012.5
2018-09-15T12:35:16.966Z,1012.6
2018-09-15T12:36:19.064Z,1012.6
2018-09-15T12:37:21.166Z,1012.6
2018-09-15T12:38:23.571Z,1012.7
2018-09-15T12:39:26.389Z,1012.7
2018-09-15T12:40:28.471Z,1012.8
2018-09-15T12:41:30.584Z,1012.9
2018-09-15T12:42:32.683Z,1012.9
2018-09-15T12:43:34.779Z,1013
2018-09-15T12:44:36.899Z,1013
2018-09-15T12:45:38.981Z,1013
2018-09-15T12:46:41.090Z,1013
2018-09-15T12:47:43.201Z,1013
2018-09-15T12:48:45.394Z,1013
2018-09-15T12:49:47.779Z,1013
2018-09-15T12:50:50.179Z,1013
2018-09-15T12:51:52.315Z,1013
2018-09-15T12:52:54.374Z,1012.9
2018-09-15T12:53:56.486Z,1012.9
2018-09-15T12:54:58.615Z,1013
2018-09-15T12:56:01.310Z,1013
2018-09-15T12:57:03.511Z,1013
2018-09-15T12:58:05.625Z,1013
2018-09-15T12:59:07.718Z,1013
2018-09-15T13:00:10.138Z,1013
2018-09-15T13:01:12.244Z,1013
2018-09-15T13:02:14.344Z,1013